sensor_id;sensor_type;location;lat;lon;timestamp;P1;durP1;ratioP1;P2;durP2;ratioP2
77016;SDS011;65949;53.132;17.930;2023-08-07T00:01:18;3.10;;;0.80;;
77016;SDS011;65949;53.132;17.930;2023-08-07T00:03:45;3.50;;;1.00;;
77016;SDS011;65949;53.132;17.930;2023-08-07T00:06:11;3.10;;;0.90;;
77016;SDS011;65949;53.132;17.930;2023-08-07T00:08:38;4.90;;;0.80;;
77016;SDS011;65949;53.132;17.930;2023-08-07T00:11:05;3.10;;;0.90;;
77016;SDS011;65949;53.132;17.930;2023-08-07T00:13:33;4.80;;;1.10;;
77016;SDS011;65949;53.132;17.930;2023-08-07T00:15:59;3.20;;;1.00;;
77016;SDS011;65949;53.132;17.930;2023-08-07T00:18:27;4.40;;;1.60;;
77016;SDS011;65949;53.132;17.930;2023-08-07T00:20:55;5.50;;;1.50;;
77016;SDS011;65949;53.132;17.930;2023-08-07T00:23:21;3.30;;;1.10;;
77016;SDS011;65949;53.132;17.930;2023-08-07T00:25:48;3.60;;;1.00;;
77016;SDS011;65949;53.132;17.930;2023-08-07T00:28:14;3.30;;;1.00;;
77016;SDS011;65949;53.132;17.930;2023-08-07T00:30:41;3.80;;;1.10;;
77016;SDS011;65949;53.132;17.930;2023-08-07T00:33:07;3.40;;;0.90;;
77016;SDS011;65949;53.132;17.930;2023-08-07T00:35:34;3.80;;;1.30;;
77016;SDS011;65949;53.132;17.930;2023-08-07T00:38:01;3.70;;;1.00;;
77016;SDS011;65949;53.132;17.930;2023-08-07T00:40:28;3.20;;;1.20;;
77016;SDS011;65949;53.132;17.930;2023-08-07T00:42:54;4.70;;;1.60;;
77016;SDS011;65949;53.132;17.930;2023-08-07T00:45:21;4.70;;;1.20;;
77016;SDS011;65949;53.132;17.930;2023-08-07T00:47:48;3.50;;;1.00;;
77016;SDS011;65949;53.132;17.930;2023-08-07T00:50:14;4.70;;;1.30;;
77016;SDS011;65949;53.132;17.930;2023-08-07T00:52:41;3.60;;;1.30;;
77016;SDS011;65949;53.132;17.930;2023-08-07T00:55:08;3.80;;;1.30;;
77016;SDS011;65949;53.132;17.930;2023-08-07T00:57:35;5.30;;;1.30;;
77016;SDS011;65949;53.132;17.930;2023-08-07T01:00:03;4.30;;;1.20;;
77016;SDS011;65949;53.132;17.930;2023-08-07T01:02:31;3.50;;;1.10;;
77016;SDS011;65949;53.132;17.930;2023-08-07T01:04:58;3.90;;;1.20;;
77016;SDS011;65949;53.132;17.930;2023-08-07T01:07:24;3.80;;;1.20;;
77016;SDS011;65949;53.132;17.930;2023-08-07T01:09:51;3.50;;;1.00;;
77016;SDS011;65949;53.132;17.930;2023-08-07T01:12:22;2.90;;;0.70;;
77016;SDS011;65949;53.132;17.930;2023-08-07T01:15:02;4.20;;;0.80;;
77016;SDS011;65949;53.132;17.930;2023-08-07T01:17:37;6.10;;;1.00;;
77016;SDS011;65949;53.132;17.930;2023-08-07T01:20:05;3.90;;;1.30;;
77016;SDS011;65949;53.132;17.930;2023-08-07T01:22:33;3.50;;;1.00;;
77016;SDS011;65949;53.132;17.930;2023-08-07T01:24:59;3.20;;;1.00;;
77016;SDS011;65949;53.132;17.930;2023-08-07T01:27:31;4.30;;;1.20;;
77016;SDS011;65949;53.132;17.930;2023-08-07T01:35:39;3.60;;;1.20;;
77016;SDS011;65949;53.132;17.930;2023-08-07T01:38:10;4.30;;;1.10;;
77016;SDS011;65949;53.132;17.930;2023-08-07T01:40:39;3.90;;;1.00;;
77016;SDS011;65949;53.132;17.930;2023-08-07T01:43:06;3.60;;;1.00;;
77016;SDS011;65949;53.132;17.930;2023-08-07T01:45:35;2.80;;;0.80;;
77016;SDS011;65949;53.132;17.930;2023-08-07T01:48:01;3.00;;;0.60;;
77016;SDS011;65949;53.132;17.930;2023-08-07T01:50:28;2.60;;;0.90;;
77016;SDS011;65949;53.132;17.930;2023-08-07T01:52:55;3.20;;;0.60;;
77016;SDS011;65949;53.132;17.930;2023-08-07T01:55:23;2.30;;;0.80;;
77016;SDS011;65949;53.132;17.930;2023-08-07T01:57:50;2.50;;;1.00;;
77016;SDS011;65949;53.132;17.930;2023-08-07T02:00:17;3.70;;;0.70;;
77016;SDS011;65949;53.132;17.930;2023-08-07T02:02:44;3.40;;;0.70;;
77016;SDS011;65949;53.132;17.930;2023-08-07T02:05:13;3.00;;;0.70;;
77016;SDS011;65949;53.132;17.930;2023-08-07T02:07:40;2.40;;;0.70;;
77016;SDS011;65949;53.132;17.930;2023-08-07T02:10:07;2.60;;;0.80;;
77016;SDS011;65949;53.132;17.930;2023-08-07T02:12:35;3.00;;;0.90;;
77016;SDS011;65949;53.132;17.930;2023-08-07T02:15:02;3.10;;;0.90;;
77016;SDS011;65949;53.132;17.930;2023-08-07T02:17:29;3.40;;;0.70;;
77016;SDS011;65949;53.132;17.930;2023-08-07T02:19:59;2.20;;;0.60;;
77016;SDS011;65949;53.132;17.930;2023-08-07T02:22:25;2.70;;;0.70;;
77016;SDS011;65949;53.132;17.930;2023-08-07T02:24:52;3.60;;;1.20;;
77016;SDS011;65949;53.132;17.930;2023-08-07T02:27:19;2.50;;;0.60;;
77016;SDS011;65949;53.132;17.930;2023-08-07T02:29:47;2.10;;;0.50;;
77016;SDS011;65949;53.132;17.930;2023-08-07T02:32:13;2.50;;;1.00;;
77016;SDS011;65949;53.132;17.930;2023-08-07T02:34:40;2.50;;;0.50;;
77016;SDS011;65949;53.132;17.930;2023-08-07T02:37:07;1.70;;;0.50;;
77016;SDS011;65949;53.132;17.930;2023-08-07T02:39:33;2.00;;;0.60;;
77016;SDS011;65949;53.132;17.930;2023-08-07T02:42:00;1.90;;;0.60;;
77016;SDS011;65949;53.132;17.930;2023-08-07T02:44:27;4.10;;;0.70;;
77016;SDS011;65949;53.132;17.930;2023-08-07T02:46:53;3.10;;;0.80;;
77016;SDS011;65949;53.132;17.930;2023-08-07T02:49:20;2.10;;;0.50;;
77016;SDS011;65949;53.132;17.930;2023-08-07T02:51:46;2.00;;;0.40;;
77016;SDS011;65949;53.132;17.930;2023-08-07T02:54:13;2.60;;;0.60;;
77016;SDS011;65949;53.132;17.930;2023-08-07T02:56:40;2.30;;;0.50;;
77016;SDS011;65949;53.132;17.930;2023-08-07T02:59:07;3.60;;;0.60;;
77016;SDS011;65949;53.132;17.930;2023-08-07T03:01:34;2.50;;;0.60;;
77016;SDS011;65949;53.132;17.930;2023-08-07T03:04:00;4.40;;;0.60;;
77016;SDS011;65949;53.132;17.930;2023-08-07T03:06:27;2.20;;;0.50;;
77016;SDS011;65949;53.132;17.930;2023-08-07T03:08:53;2.50;;;0.50;;
77016;SDS011;65949;53.132;17.930;2023-08-07T03:11:20;2.30;;;0.80;;
77016;SDS011;65949;53.132;17.930;2023-08-07T03:13:47;1.90;;;0.50;;
77016;SDS011;65949;53.132;17.930;2023-08-07T03:16:15;2.30;;;0.40;;
77016;SDS011;65949;53.132;17.930;2023-08-07T03:18:42;2.00;;;0.50;;
77016;SDS011;65949;53.132;17.930;2023-08-07T03:21:09;3.70;;;0.50;;
77016;SDS011;65949;53.132;17.930;2023-08-07T03:23:35;3.10;;;0.60;;
77016;SDS011;65949;53.132;17.930;2023-08-07T03:26:10;1.80;;;0.50;;
77016;SDS011;65949;53.132;17.930;2023-08-07T03:28:38;2.60;;;0.70;;
77016;SDS011;65949;53.132;17.930;2023-08-07T03:31:05;3.10;;;0.50;;
77016;SDS011;65949;53.132;17.930;2023-08-07T03:33:34;2.90;;;0.80;;
77016;SDS011;65949;53.132;17.930;2023-08-07T03:36:01;2.10;;;0.60;;
77016;SDS011;65949;53.132;17.930;2023-08-07T03:38:28;1.70;;;0.50;;
77016;SDS011;65949;53.132;17.930;2023-08-07T03:40:55;1.80;;;0.30;;
77016;SDS011;65949;53.132;17.930;2023-08-07T03:43:22;2.70;;;0.50;;
77016;SDS011;65949;53.132;17.930;2023-08-07T03:45:53;3.50;;;0.40;;
77016;SDS011;65949;53.132;17.930;2023-08-07T03:48:22;1.60;;;0.40;;
77016;SDS011;65949;53.132;17.930;2023-08-07T03:50:49;2.20;;;0.40;;
77016;SDS011;65949;53.132;17.930;2023-08-07T03:53:17;2.10;;;0.30;;
77016;SDS011;65949;53.132;17.930;2023-08-07T03:55:49;2.90;;;0.40;;
77016;SDS011;65949;53.132;17.930;2023-08-07T03:58:17;2.80;;;0.60;;
77016;SDS011;65949;53.132;17.930;2023-08-07T04:00:44;2.50;;;1.20;;
77016;SDS011;65949;53.132;17.930;2023-08-07T04:03:11;1.80;;;0.40;;
77016;SDS011;65949;53.132;17.930;2023-08-07T04:05:38;2.60;;;0.40;;
77016;SDS011;65949;53.132;17.930;2023-08-07T04:08:06;2.30;;;0.50;;
77016;SDS011;65949;53.132;17.930;2023-08-07T04:10:33;2.30;;;0.60;;
77016;SDS011;65949;53.132;17.930;2023-08-07T04:12:59;2.80;;;0.60;;
77016;SDS011;65949;53.132;17.930;2023-08-07T04:15:26;3.20;;;0.60;;
77016;SDS011;65949;53.132;17.930;2023-08-07T04:17:54;3.00;;;0.70;;
77016;SDS011;65949;53.132;17.930;2023-08-07T04:20:21;2.30;;;0.70;;
77016;SDS011;65949;53.132;17.930;2023-08-07T04:22:47;4.20;;;1.00;;
77016;SDS011;65949;53.132;17.930;2023-08-07T04:25:14;4.30;;;0.80;;
77016;SDS011;65949;53.132;17.930;2023-08-07T04:27:40;3.20;;;1.00;;
77016;SDS011;65949;53.132;17.930;2023-08-07T04:30:07;2.90;;;0.70;;
77016;SDS011;65949;53.132;17.930;2023-08-07T04:32:34;3.30;;;0.70;;
77016;SDS011;65949;53.132;17.930;2023-08-07T04:35:00;4.00;;;1.20;;
77016;SDS011;65949;53.132;17.930;2023-08-07T04:37:27;4.00;;;1.30;;
77016;SDS011;65949;53.132;17.930;2023-08-07T04:39:56;3.90;;;0.90;;
77016;SDS011;65949;53.132;17.930;2023-08-07T04:42:23;4.30;;;1.40;;
77016;SDS011;65949;53.132;17.930;2023-08-07T04:44:49;3.20;;;0.90;;
77016;SDS011;65949;53.132;17.930;2023-08-07T04:47:16;3.50;;;1.40;;
77016;SDS011;65949;53.132;17.930;2023-08-07T04:49:43;4.60;;;1.40;;
77016;SDS011;65949;53.132;17.930;2023-08-07T04:52:09;4.00;;;1.10;;
77016;SDS011;65949;53.132;17.930;2023-08-07T04:54:36;5.20;;;1.20;;
77016;SDS011;65949;53.132;17.930;2023-08-07T04:57:02;3.60;;;1.10;;
77016;SDS011;65949;53.132;17.930;2023-08-07T04:59:29;4.40;;;1.10;;
77016;SDS011;65949;53.132;17.930;2023-08-07T05:01:57;4.00;;;1.00;;
77016;SDS011;65949;53.132;17.930;2023-08-07T05:04:24;3.80;;;1.30;;
77016;SDS011;65949;53.132;17.930;2023-08-07T05:06:50;5.30;;;1.50;;
77016;SDS011;65949;53.132;17.930;2023-08-07T05:09:17;3.90;;;1.20;;
77016;SDS011;65949;53.132;17.930;2023-08-07T05:11:44;3.80;;;1.30;;
77016;SDS011;65949;53.132;17.930;2023-08-07T05:14:11;4.50;;;1.50;;
77016;SDS011;65949;53.132;17.930;2023-08-07T05:16:37;4.10;;;1.30;;
77016;SDS011;65949;53.132;17.930;2023-08-07T05:19:04;4.70;;;1.30;;
77016;SDS011;65949;53.132;17.930;2023-08-07T05:21:31;3.50;;;1.20;;
77016;SDS011;65949;53.132;17.930;2023-08-07T05:23:57;3.10;;;0.90;;
77016;SDS011;65949;53.132;17.930;2023-08-07T05:26:24;4.20;;;0.90;;
77016;SDS011;65949;53.132;17.930;2023-08-07T05:28:50;4.40;;;0.90;;
77016;SDS011;65949;53.132;17.930;2023-08-07T05:31:17;3.20;;;0.90;;
77016;SDS011;65949;53.132;17.930;2023-08-07T05:33:43;3.80;;;1.00;;
77016;SDS011;65949;53.132;17.930;2023-08-07T05:36:10;4.10;;;1.20;;
77016;SDS011;65949;53.132;17.930;2023-08-07T05:38:36;4.90;;;1.30;;
77016;SDS011;65949;53.132;17.930;2023-08-07T05:41:03;3.70;;;1.00;;
77016;SDS011;65949;53.132;17.930;2023-08-07T05:43:30;4.10;;;0.90;;
77016;SDS011;65949;53.132;17.930;2023-08-07T05:45:56;4.30;;;0.80;;
77016;SDS011;65949;53.132;17.930;2023-08-07T05:48:23;4.00;;;1.20;;
77016;SDS011;65949;53.132;17.930;2023-08-07T05:50:50;3.70;;;1.10;;
77016;SDS011;65949;53.132;17.930;2023-08-07T05:53:17;2.90;;;0.80;;
77016;SDS011;65949;53.132;17.930;2023-08-07T05:55:44;3.40;;;0.90;;
77016;SDS011;65949;53.132;17.930;2023-08-07T05:58:10;4.30;;;0.90;;
77016;SDS011;65949;53.132;17.930;2023-08-07T06:00:37;7.60;;;1.40;;
77016;SDS011;65949;53.132;17.930;2023-08-07T06:03:04;4.50;;;1.10;;
77016;SDS011;65949;53.132;17.930;2023-08-07T06:05:30;4.40;;;1.20;;
77016;SDS011;65949;53.132;17.930;2023-08-07T06:07:57;4.60;;;1.30;;
77016;SDS011;65949;53.132;17.930;2023-08-07T06:10:24;4.70;;;1.70;;
77016;SDS011;65949;53.132;17.930;2023-08-07T06:12:50;6.60;;;1.90;;
77016;SDS011;65949;53.132;17.930;2023-08-07T06:15:17;5.40;;;1.80;;
77016;SDS011;65949;53.132;17.930;2023-08-07T06:17:43;6.80;;;2.10;;
77016;SDS011;65949;53.132;17.930;2023-08-07T06:20:10;5.80;;;1.20;;
77016;SDS011;65949;53.132;17.930;2023-08-07T06:22:38;4.60;;;1.20;;
77016;SDS011;65949;53.132;17.930;2023-08-07T06:25:05;4.90;;;1.60;;
77016;SDS011;65949;53.132;17.930;2023-08-07T06:27:33;4.10;;;1.40;;
77016;SDS011;65949;53.132;17.930;2023-08-07T06:29:59;6.40;;;1.90;;
77016;SDS011;65949;53.132;17.930;2023-08-07T06:32:26;4.70;;;1.40;;
77016;SDS011;65949;53.132;17.930;2023-08-07T06:34:53;4.60;;;1.20;;
77016;SDS011;65949;53.132;17.930;2023-08-07T06:37:19;4.80;;;1.50;;
77016;SDS011;65949;53.132;17.930;2023-08-07T06:39:46;4.60;;;1.50;;
77016;SDS011;65949;53.132;17.930;2023-08-07T06:42:13;4.40;;;1.40;;
77016;SDS011;65949;53.132;17.930;2023-08-07T06:44:42;4.40;;;1.40;;
77016;SDS011;65949;53.132;17.930;2023-08-07T06:47:08;4.40;;;1.20;;
77016;SDS011;65949;53.132;17.930;2023-08-07T06:49:35;4.60;;;1.40;;
77016;SDS011;65949;53.132;17.930;2023-08-07T06:52:02;4.50;;;1.70;;
77016;SDS011;65949;53.132;17.930;2023-08-07T06:54:29;5.90;;;1.50;;
77016;SDS011;65949;53.132;17.930;2023-08-07T06:56:56;4.30;;;1.10;;
77016;SDS011;65949;53.132;17.930;2023-08-07T06:59:22;4.50;;;1.20;;
77016;SDS011;65949;53.132;17.930;2023-08-07T07:01:51;4.40;;;1.30;;
77016;SDS011;65949;53.132;17.930;2023-08-07T07:04:18;3.90;;;1.10;;
77016;SDS011;65949;53.132;17.930;2023-08-07T07:06:44;3.60;;;1.20;;
77016;SDS011;65949;53.132;17.930;2023-08-07T07:09:11;4.20;;;1.30;;
77016;SDS011;65949;53.132;17.930;2023-08-07T07:11:42;4.60;;;1.10;;
77016;SDS011;65949;53.132;17.930;2023-08-07T07:14:10;4.30;;;1.20;;
77016;SDS011;65949;53.132;17.930;2023-08-07T07:16:37;4.70;;;1.60;;
77016;SDS011;65949;53.132;17.930;2023-08-07T07:19:04;4.60;;;1.30;;
77016;SDS011;65949;53.132;17.930;2023-08-07T07:21:34;5.30;;;1.20;;
77016;SDS011;65949;53.132;17.930;2023-08-07T07:24:01;4.30;;;1.20;;
77016;SDS011;65949;53.132;17.930;2023-08-07T07:26:28;4.70;;;1.50;;
77016;SDS011;65949;53.132;17.930;2023-08-07T07:28:55;4.30;;;1.40;;
77016;SDS011;65949;53.132;17.930;2023-08-07T07:31:22;4.70;;;1.00;;
77016;SDS011;65949;53.132;17.930;2023-08-07T07:33:48;5.80;;;1.40;;
77016;SDS011;65949;53.132;17.930;2023-08-07T07:36:16;4.40;;;1.00;;
77016;SDS011;65949;53.132;17.930;2023-08-07T07:38:44;5.00;;;1.00;;
77016;SDS011;65949;53.132;17.930;2023-08-07T07:41:12;6.00;;;1.70;;
77016;SDS011;65949;53.132;17.930;2023-08-07T07:43:40;3.40;;;1.10;;
77016;SDS011;65949;53.132;17.930;2023-08-07T07:46:07;4.00;;;1.00;;
77016;SDS011;65949;53.132;17.930;2023-08-07T07:48:34;3.90;;;1.20;;
77016;SDS011;65949;53.132;17.930;2023-08-07T07:51:03;3.50;;;0.80;;
77016;SDS011;65949;53.132;17.930;2023-08-07T07:53:30;4.60;;;1.10;;
77016;SDS011;65949;53.132;17.930;2023-08-07T07:55:57;3.40;;;0.80;;
77016;SDS011;65949;53.132;17.930;2023-08-07T07:58:24;4.90;;;1.30;;
77016;SDS011;65949;53.132;17.930;2023-08-07T08:00:51;4.40;;;1.20;;
77016;SDS011;65949;53.132;17.930;2023-08-07T08:03:21;4.10;;;0.90;;
77016;SDS011;65949;53.132;17.930;2023-08-07T08:05:51;4.50;;;1.60;;
77016;SDS011;65949;53.132;17.930;2023-08-07T08:08:18;4.30;;;1.50;;
77016;SDS011;65949;53.132;17.930;2023-08-07T08:10:45;3.70;;;0.90;;
77016;SDS011;65949;53.132;17.930;2023-08-07T08:13:14;3.40;;;1.10;;
77016;SDS011;65949;53.132;17.930;2023-08-07T08:15:41;4.00;;;1.20;;
77016;SDS011;65949;53.132;17.930;2023-08-07T08:18:09;5.50;;;1.60;;
77016;SDS011;65949;53.132;17.930;2023-08-07T08:20:37;6.20;;;0.90;;
77016;SDS011;65949;53.132;17.930;2023-08-07T08:23:04;4.90;;;1.20;;
77016;SDS011;65949;53.132;17.930;2023-08-07T08:25:31;4.40;;;1.30;;
77016;SDS011;65949;53.132;17.930;2023-08-07T08:27:59;5.20;;;1.40;;
77016;SDS011;65949;53.132;17.930;2023-08-07T08:30:28;4.80;;;1.60;;
77016;SDS011;65949;53.132;17.930;2023-08-07T08:32:55;3.60;;;1.10;;
77016;SDS011;65949;53.132;17.930;2023-08-07T08:35:22;4.30;;;1.10;;
77016;SDS011;65949;53.132;17.930;2023-08-07T08:37:49;6.10;;;1.20;;
77016;SDS011;65949;53.132;17.930;2023-08-07T08:40:16;4.30;;;1.20;;
77016;SDS011;65949;53.132;17.930;2023-08-07T08:42:43;6.00;;;1.50;;
77016;SDS011;65949;53.132;17.930;2023-08-07T08:45:14;6.10;;;1.50;;
77016;SDS011;65949;53.132;17.930;2023-08-07T08:47:41;4.00;;;1.40;;
77016;SDS011;65949;53.132;17.930;2023-08-07T08:50:13;4.10;;;1.10;;
77016;SDS011;65949;53.132;17.930;2023-08-07T08:52:41;3.80;;;1.00;;
77016;SDS011;65949;53.132;17.930;2023-08-07T08:55:11;4.10;;;1.10;;
77016;SDS011;65949;53.132;17.930;2023-08-07T08:57:39;4.50;;;1.20;;
77016;SDS011;65949;53.132;17.930;2023-08-07T09:00:06;3.40;;;1.10;;
77016;SDS011;65949;53.132;17.930;2023-08-07T09:02:44;5.50;;;2.20;;
77016;SDS011;65949;53.132;17.930;2023-08-07T09:05:12;4.40;;;1.20;;
77016;SDS011;65949;53.132;17.930;2023-08-07T09:07:40;5.40;;;1.60;;
77016;SDS011;65949;53.132;17.930;2023-08-07T09:10:07;4.90;;;1.20;;
77016;SDS011;65949;53.132;17.930;2023-08-07T09:12:39;5.90;;;1.40;;
77016;SDS011;65949;53.132;17.930;2023-08-07T09:15:08;4.10;;;1.20;;
77016;SDS011;65949;53.132;17.930;2023-08-07T09:17:40;3.80;;;1.10;;
77016;SDS011;65949;53.132;17.930;2023-08-07T09:20:07;4.30;;;1.70;;
77016;SDS011;65949;53.132;17.930;2023-08-07T09:22:41;4.40;;;1.20;;
77016;SDS011;65949;53.132;17.930;2023-08-07T09:25:08;4.10;;;1.00;;
77016;SDS011;65949;53.132;17.930;2023-08-07T09:27:36;5.20;;;1.20;;
77016;SDS011;65949;53.132;17.930;2023-08-07T09:30:05;3.60;;;1.10;;
77016;SDS011;65949;53.132;17.930;2023-08-07T09:32:36;3.80;;;1.00;;
77016;SDS011;65949;53.132;17.930;2023-08-07T09:35:03;3.30;;;1.00;;
77016;SDS011;65949;53.132;17.930;2023-08-07T09:37:32;4.50;;;1.20;;
77016;SDS011;65949;53.132;17.930;2023-08-07T09:40:02;4.10;;;1.10;;
77016;SDS011;65949;53.132;17.930;2023-08-07T09:42:32;3.30;;;1.40;;
77016;SDS011;65949;53.132;17.930;2023-08-07T09:45:00;5.10;;;1.60;;
77016;SDS011;65949;53.132;17.930;2023-08-07T09:47:26;4.60;;;1.30;;
77016;SDS011;65949;53.132;17.930;2023-08-07T09:49:57;3.80;;;1.30;;
77016;SDS011;65949;53.132;17.930;2023-08-07T09:52:24;5.50;;;1.30;;
77016;SDS011;65949;53.132;17.930;2023-08-07T09:54:55;3.20;;;1.40;;
77016;SDS011;65949;53.132;17.930;2023-08-07T09:57:22;4.10;;;1.40;;
77016;SDS011;65949;53.132;17.930;2023-08-07T09:59:49;4.00;;;1.10;;
77016;SDS011;65949;53.132;17.930;2023-08-07T10:02:18;4.00;;;1.70;;
77016;SDS011;65949;53.132;17.930;2023-08-07T10:04:47;2.90;;;1.60;;
77016;SDS011;65949;53.132;17.930;2023-08-07T10:07:16;2.90;;;1.10;;
77016;SDS011;65949;53.132;17.930;2023-08-07T10:09:42;4.70;;;1.80;;
77016;SDS011;65949;53.132;17.930;2023-08-07T10:12:11;4.30;;;1.70;;
77016;SDS011;65949;53.132;17.930;2023-08-07T10:14:38;4.50;;;1.60;;
77016;SDS011;65949;53.132;17.930;2023-08-07T10:17:08;5.30;;;1.40;;
77016;SDS011;65949;53.132;17.930;2023-08-07T10:19:36;4.90;;;1.90;;
77016;SDS011;65949;53.132;17.930;2023-08-07T10:22:05;5.10;;;1.70;;
77016;SDS011;65949;53.132;17.930;2023-08-07T10:24:33;6.00;;;1.60;;
77016;SDS011;65949;53.132;17.930;2023-08-07T10:27:08;4.60;;;1.80;;
77016;SDS011;65949;53.132;17.930;2023-08-07T10:29:38;4.30;;;2.50;;
77016;SDS011;65949;53.132;17.930;2023-08-07T10:32:06;3.60;;;1.00;;
77016;SDS011;65949;53.132;17.930;2023-08-07T10:34:34;5.20;;;1.40;;
77016;SDS011;65949;53.132;17.930;2023-08-07T10:37:06;7.10;;;1.80;;
77016;SDS011;65949;53.132;17.930;2023-08-07T10:39:33;5.30;;;1.30;;
77016;SDS011;65949;53.132;17.930;2023-08-07T10:42:00;4.00;;;1.50;;
77016;SDS011;65949;53.132;17.930;2023-08-07T10:44:30;6.50;;;1.70;;
77016;SDS011;65949;53.132;17.930;2023-08-07T10:46:57;4.50;;;1.50;;
77016;SDS011;65949;53.132;17.930;2023-08-07T10:49:36;4.30;;;1.50;;
77016;SDS011;65949;53.132;17.930;2023-08-07T10:54:48;4.50;;;1.60;;
77016;SDS011;65949;53.132;17.930;2023-08-07T10:57:16;5.80;;;1.50;;
77016;SDS011;65949;53.132;17.930;2023-08-07T10:59:52;6.10;;;2.10;;
77016;SDS011;65949;53.132;17.930;2023-08-07T11:02:32;5.40;;;1.80;;
77016;SDS011;65949;53.132;17.930;2023-08-07T11:05:03;4.70;;;1.50;;
77016;SDS011;65949;53.132;17.930;2023-08-07T11:07:33;4.50;;;1.60;;
77016;SDS011;65949;53.132;17.930;2023-08-07T11:10:00;4.90;;;1.90;;
77016;SDS011;65949;53.132;17.930;2023-08-07T11:12:27;7.40;;;1.80;;
77016;SDS011;65949;53.132;17.930;2023-08-07T11:14:55;6.50;;;1.60;;
77016;SDS011;65949;53.132;17.930;2023-08-07T11:17:29;5.30;;;1.80;;
77016;SDS011;65949;53.132;17.930;2023-08-07T11:19:56;4.50;;;1.50;;
77016;SDS011;65949;53.132;17.930;2023-08-07T11:22:24;4.30;;;1.60;;
77016;SDS011;65949;53.132;17.930;2023-08-07T11:24:55;6.40;;;2.20;;
77016;SDS011;65949;53.132;17.930;2023-08-07T11:27:22;7.90;;;1.70;;
77016;SDS011;65949;53.132;17.930;2023-08-07T11:29:49;4.80;;;1.50;;
77016;SDS011;65949;53.132;17.930;2023-08-07T11:32:16;4.60;;;1.30;;
77016;SDS011;65949;53.132;17.930;2023-08-07T11:34:49;4.70;;;1.30;;
77016;SDS011;65949;53.132;17.930;2023-08-07T11:37:17;5.10;;;1.60;;
77016;SDS011;65949;53.132;17.930;2023-08-07T11:39:44;4.50;;;1.50;;
77016;SDS011;65949;53.132;17.930;2023-08-07T11:42:11;5.00;;;1.80;;
77016;SDS011;65949;53.132;17.930;2023-08-07T11:44:38;3.60;;;1.20;;
77016;SDS011;65949;53.132;17.930;2023-08-07T11:47:04;4.70;;;1.50;;
77016;SDS011;65949;53.132;17.930;2023-08-07T11:49:32;4.20;;;1.70;;
77016;SDS011;65949;53.132;17.930;2023-08-07T11:51:59;5.90;;;1.40;;
77016;SDS011;65949;53.132;17.930;2023-08-07T11:54:26;6.40;;;1.30;;
77016;SDS011;65949;53.132;17.930;2023-08-07T11:56:53;5.70;;;1.50;;
77016;SDS011;65949;53.132;17.930;2023-08-07T11:59:22;4.50;;;1.50;;
77016;SDS011;65949;53.132;17.930;2023-08-07T12:01:51;5.10;;;1.60;;
77016;SDS011;65949;53.132;17.930;2023-08-07T12:04:17;5.80;;;1.70;;
77016;SDS011;65949;53.132;17.930;2023-08-07T12:06:54;4.40;;;1.20;;
77016;SDS011;65949;53.132;17.930;2023-08-07T12:09:25;4.30;;;1.50;;
77016;SDS011;65949;53.132;17.930;2023-08-07T12:11:55;4.90;;;1.50;;
77016;SDS011;65949;53.132;17.930;2023-08-07T12:14:28;4.90;;;1.90;;
77016;SDS011;65949;53.132;17.930;2023-08-07T12:16:56;5.60;;;1.60;;
77016;SDS011;65949;53.132;17.930;2023-08-07T12:19:23;4.90;;;1.40;;
77016;SDS011;65949;53.132;17.930;2023-08-07T12:21:49;4.40;;;1.10;;
77016;SDS011;65949;53.132;17.930;2023-08-07T12:24:16;4.00;;;1.70;;
77016;SDS011;65949;53.132;17.930;2023-08-07T12:26:44;4.10;;;1.60;;
77016;SDS011;65949;53.132;17.930;2023-08-07T12:29:11;6.10;;;1.40;;
77016;SDS011;65949;53.132;17.930;2023-08-07T12:31:37;4.00;;;1.70;;
77016;SDS011;65949;53.132;17.930;2023-08-07T12:34:05;5.40;;;1.40;;
77016;SDS011;65949;53.132;17.930;2023-08-07T12:36:34;4.20;;;1.30;;
77016;SDS011;65949;53.132;17.930;2023-08-07T12:39:01;4.60;;;1.90;;
77016;SDS011;65949;53.132;17.930;2023-08-07T12:41:30;5.10;;;1.60;;
77016;SDS011;65949;53.132;17.930;2023-08-07T12:43:57;5.40;;;1.60;;
77016;SDS011;65949;53.132;17.930;2023-08-07T12:46:25;3.90;;;1.70;;
77016;SDS011;65949;53.132;17.930;2023-08-07T12:48:52;5.60;;;1.60;;
77016;SDS011;65949;53.132;17.930;2023-08-07T12:51:20;6.10;;;1.60;;
77016;SDS011;65949;53.132;17.930;2023-08-07T12:53:47;5.00;;;1.50;;
77016;SDS011;65949;53.132;17.930;2023-08-07T12:56:21;4.80;;;1.40;;
77016;SDS011;65949;53.132;17.930;2023-08-07T12:58:48;3.80;;;1.30;;
77016;SDS011;65949;53.132;17.930;2023-08-07T13:01:16;4.80;;;1.60;;
77016;SDS011;65949;53.132;17.930;2023-08-07T13:03:43;5.30;;;1.50;;
77016;SDS011;65949;53.132;17.930;2023-08-07T13:06:10;5.20;;;1.30;;
77016;SDS011;65949;53.132;17.930;2023-08-07T13:08:38;4.90;;;1.70;;
77016;SDS011;65949;53.132;17.930;2023-08-07T13:11:04;5.60;;;2.10;;
77016;SDS011;65949;53.132;17.930;2023-08-07T13:13:32;5.00;;;1.50;;
77016;SDS011;65949;53.132;17.930;2023-08-07T13:15:59;5.90;;;1.60;;
77016;SDS011;65949;53.132;17.930;2023-08-07T13:18:25;6.00;;;1.60;;
77016;SDS011;65949;53.132;17.930;2023-08-07T13:20:52;5.80;;;1.50;;
77016;SDS011;65949;53.132;17.930;2023-08-07T13:23:18;5.80;;;1.80;;
77016;SDS011;65949;53.132;17.930;2023-08-07T13:25:45;5.20;;;1.60;;
77016;SDS011;65949;53.132;17.930;2023-08-07T13:28:12;4.20;;;1.80;;
77016;SDS011;65949;53.132;17.930;2023-08-07T13:30:38;5.50;;;1.90;;
77016;SDS011;65949;53.132;17.930;2023-08-07T13:33:05;4.00;;;1.50;;
77016;SDS011;65949;53.132;17.930;2023-08-07T13:35:32;4.50;;;1.60;;
77016;SDS011;65949;53.132;17.930;2023-08-07T13:38:01;3.80;;;1.30;;
77016;SDS011;65949;53.132;17.930;2023-08-07T13:40:31;5.20;;;1.90;;
77016;SDS011;65949;53.132;17.930;2023-08-07T13:42:58;5.90;;;1.50;;
77016;SDS011;65949;53.132;17.930;2023-08-07T13:45:25;5.20;;;1.50;;
77016;SDS011;65949;53.132;17.930;2023-08-07T13:47:52;4.40;;;1.40;;
77016;SDS011;65949;53.132;17.930;2023-08-07T13:50:18;4.70;;;1.50;;
77016;SDS011;65949;53.132;17.930;2023-08-07T13:52:47;5.70;;;1.60;;
77016;SDS011;65949;53.132;17.930;2023-08-07T13:55:13;4.50;;;1.60;;
77016;SDS011;65949;53.132;17.930;2023-08-07T13:57:40;5.00;;;1.50;;
77016;SDS011;65949;53.132;17.930;2023-08-07T14:00:07;6.20;;;1.40;;
77016;SDS011;65949;53.132;17.930;2023-08-07T14:02:34;5.70;;;1.50;;
77016;SDS011;65949;53.132;17.930;2023-08-07T14:05:01;5.80;;;1.60;;
77016;SDS011;65949;53.132;17.930;2023-08-07T14:07:28;4.30;;;1.50;;
77016;SDS011;65949;53.132;17.930;2023-08-07T14:09:54;4.60;;;1.30;;
77016;SDS011;65949;53.132;17.930;2023-08-07T14:12:21;7.90;;;1.20;;
77016;SDS011;65949;53.132;17.930;2023-08-07T14:14:47;5.40;;;1.50;;
77016;SDS011;65949;53.132;17.930;2023-08-07T14:17:14;4.70;;;1.70;;
77016;SDS011;65949;53.132;17.930;2023-08-07T14:19:41;4.50;;;1.30;;
77016;SDS011;65949;53.132;17.930;2023-08-07T14:22:07;4.90;;;1.50;;
77016;SDS011;65949;53.132;17.930;2023-08-07T14:24:34;3.70;;;1.30;;
77016;SDS011;65949;53.132;17.930;2023-08-07T14:27:01;5.40;;;1.30;;
77016;SDS011;65949;53.132;17.930;2023-08-07T14:29:27;4.60;;;1.40;;
77016;SDS011;65949;53.132;17.930;2023-08-07T14:31:54;3.40;;;1.00;;
77016;SDS011;65949;53.132;17.930;2023-08-07T14:34:21;4.90;;;1.80;;
77016;SDS011;65949;53.132;17.930;2023-08-07T14:36:49;6.00;;;1.40;;
77016;SDS011;65949;53.132;17.930;2023-08-07T14:39:16;4.40;;;1.00;;
77016;SDS011;65949;53.132;17.930;2023-08-07T14:41:43;6.10;;;1.50;;
77016;SDS011;65949;53.132;17.930;2023-08-07T14:44:09;4.10;;;1.40;;